createdAt,value
2022-11-17T00:00:30.189Z,6.82
2022-11-17T00:02:57.079Z,7.55
2022-11-17T00:05:24.182Z,7.43
2022-11-17T00:07:51.194Z,7.65
2022-11-17T00:10:18.402Z,8.18
2022-11-17T00:13:14.268Z,7.37
2022-11-17T00:15:43.735Z,7.37
2022-11-17T00:18:29.102Z,7.20
2022-11-17T00:21:14.723Z,7.18
2022-11-17T00:23:47.926Z,7.22
2022-11-17T00:26:16.639Z,6.32
2022-11-17T00:28:44.030Z,7.07
2022-11-17T00:31:33.241Z,7.18
2022-11-17T00:34:06.912Z,5.82
2022-11-17T00:36:34.932Z,6.87
2022-11-17T00:39:02.187Z,6.95
2022-11-17T00:41:29.038Z,6.87
2022-11-17T00:43:55.881Z,6.55
2022-11-17T00:46:23.141Z,7.55
2022-11-17T00:48:50.219Z,6.32
2022-11-17T00:51:17.129Z,6.65
2022-11-17T00:53:44.026Z,6.55
2022-11-17T00:56:11.094Z,6.18
2022-11-17T00:58:38.168Z,7.00
2022-11-17T01:01:05.341Z,6.72
2022-11-17T01:03:32.410Z,7.60
2022-11-17T01:06:08.385Z,8.60
2022-11-17T01:08:35.635Z,8.05
2022-11-17T01:11:14.638Z,7.80
2022-11-17T01:13:42.593Z,8.57
2022-11-17T01:16:15.761Z,7.75
2022-11-17T01:18:43.834Z,8.95
2022-11-17T01:21:19.299Z,8.52
2022-11-17T01:23:47.458Z,9.43
2022-11-17T01:26:16.652Z,8.13
2022-11-17T01:28:43.861Z,8.07
2022-11-17T01:31:15.797Z,8.70
2022-11-17T01:33:42.842Z,8.52
2022-11-17T01:36:23.210Z,8.95
2022-11-17T01:38:50.284Z,8.40
2022-11-17T01:41:27.401Z,9.07
2022-11-17T01:43:59.632Z,8.75
2022-11-17T01:46:39.016Z,9.52
2022-11-17T01:49:10.344Z,8.35
2022-11-17T01:51:40.985Z,9.25
2022-11-17T01:54:09.400Z,9.10
2022-11-17T01:56:40.303Z,9.02
2022-11-17T01:59:10.624Z,8.55
2022-11-17T02:01:55.852Z,8.95
2022-11-17T02:04:28.445Z,8.63
2022-11-17T02:07:16.130Z,8.48
2022-11-17T02:09:44.168Z,8.05
2022-11-17T02:12:13.232Z,8.48
2022-11-17T02:14:40.533Z,8.23
2022-11-17T02:17:13.783Z,8.30
2022-11-17T02:19:42.697Z,7.47
2022-11-17T02:22:28.197Z,8.52
2022-11-17T02:25:25.722Z,8.90
2022-11-17T02:28:17.585Z,8.18
2022-11-17T02:31:04.110Z,8.45
2022-11-17T02:33:37.994Z,8.05
2022-11-17T02:36:31.542Z,7.57
2022-11-17T02:39:12.221Z,8.50
2022-11-17T02:41:50.859Z,8.13
2022-11-17T02:44:37.920Z,8.32
2022-11-17T02:47:05.419Z,8.75
2022-11-17T02:49:43.333Z,8.52
2022-11-17T02:52:10.227Z,8.63
2022-11-17T02:54:37.122Z,8.90
2022-11-17T02:57:04.052Z,9.15
2022-11-17T02:59:47.102Z,8.48
2022-11-17T03:02:25.947Z,8.75
2022-11-17T03:05:34.713Z,8.68
2022-11-17T03:08:33.355Z,7.75
2022-11-17T03:11:04.945Z,8.52
2022-11-17T03:13:51.961Z,9.73
2022-11-17T03:16:24.807Z,9.10
2022-11-17T03:19:14.111Z,9.32
2022-11-17T03:21:40.940Z,10.05
2022-11-17T03:26:53.458Z,8.87
2022-11-17T03:29:22.019Z,9.80
2022-11-17T03:31:51.376Z,9.93
2022-11-17T03:34:21.357Z,9.15
2022-11-17T03:36:52.955Z,9.48
2022-11-17T03:39:26.459Z,8.80
2022-11-17T03:41:59.096Z,9.32
2022-11-17T03:44:27.624Z,8.32
2022-11-17T03:46:56.028Z,8.65
2022-11-17T03:49:35.538Z,9.85
2022-11-17T03:52:02.498Z,8.57
2022-11-17T03:54:29.396Z,9.10
2022-11-17T03:57:07.389Z,8.80
2022-11-17T03:59:54.307Z,8.23
2022-11-17T04:02:22.548Z,7.80
2022-11-17T04:05:07.464Z,8.48
2022-11-17T04:07:44.780Z,8.63
2022-11-17T04:13:01.371Z,9.27
2022-11-17T04:15:47.224Z,8.68
2022-11-17T04:18:14.549Z,9.55
2022-11-17T04:20:42.000Z,8.90
2022-11-17T04:23:12.283Z,9.75
2022-11-17T04:26:02.633Z,9.48
2022-11-17T04:28:37.066Z,10.35
2022-11-17T04:31:09.055Z,9.98
2022-11-17T04:33:36.922Z,9.07
2022-11-17T04:36:04.843Z,9.50
2022-11-17T04:38:31.741Z,9.32
2022-11-17T04:41:22.611Z,9.43
2022-11-17T04:43:49.494Z,9.32
2022-11-17T04:46:17.363Z,9.13
2022-11-17T04:48:44.453Z,9.55
2022-11-17T04:51:12.004Z,9.80
2022-11-17T04:53:39.102Z,9.50
2022-11-17T04:56:06.828Z,9.32
2022-11-17T04:58:33.758Z,9.68
2022-11-17T05:01:12.631Z,9.13
2022-11-17T05:03:40.372Z,8.90
2022-11-17T05:06:07.802Z,8.90
2022-11-17T05:08:37.100Z,10.25
2022-11-17T05:11:23.309Z,9.80
2022-11-17T05:13:51.349Z,9.52
2022-11-17T05:16:37.874Z,9.73
2022-11-17T05:19:05.902Z,10.02
2022-11-17T05:21:33.196Z,9.13
2022-11-17T05:24:00.115Z,9.23
2022-11-17T05:26:29.136Z,9.80
2022-11-17T05:28:57.648Z,9.98
2022-11-17T05:31:25.700Z,9.10
2022-11-17T05:33:53.415Z,9.35
2022-11-17T05:36:20.837Z,9.68
2022-11-17T05:38:48.542Z,10.02
2022-11-17T05:41:16.372Z,10.27
2022-11-17T05:43:43.990Z,9.32
2022-11-17T05:46:11.181Z,9.13
2022-11-17T05:48:38.185Z,9.63
2022-11-17T05:51:05.394Z,9.68
2022-11-17T05:53:32.678Z,9.23
2022-11-17T05:56:41.221Z,8.38
2022-11-17T05:59:22.057Z,9.10
2022-11-17T06:02:03.575Z,8.90
2022-11-17T06:04:31.003Z,9.35
2022-11-17T06:06:59.484Z,9.13
2022-11-17T06:09:33.492Z,8.85
2022-11-17T06:12:05.607Z,8.35
2022-11-17T06:14:34.372Z,8.65
2022-11-17T06:17:06.535Z,10.07
2022-11-17T06:19:42.168Z,8.00
2022-11-17T06:22:13.547Z,8.23
2022-11-17T06:24:42.321Z,9.35
2022-11-17T06:27:11.019Z,8.70
2022-11-17T06:29:43.688Z,9.07
2022-11-17T06:32:12.410Z,8.27
2022-11-17T06:34:39.316Z,9.73
2022-11-17T06:37:06.156Z,9.18
2022-11-17T06:39:33.118Z,9.60
2022-11-17T06:41:59.967Z,9.38
2022-11-17T06:44:26.815Z,9.63
2022-11-17T06:46:53.666Z,9.48
2022-11-17T06:49:20.551Z,9.73
2022-11-17T06:51:47.400Z,10.73
2022-11-17T06:54:15.055Z,10.30
2022-11-17T06:56:42.582Z,10.60
2022-11-17T06:59:09.581Z,11.12
2022-11-17T07:01:37.876Z,10.10
2022-11-17T07:04:05.163Z,10.27
2022-11-17T07:06:32.414Z,11.35
2022-11-17T07:08:59.413Z,11.75
2022-11-17T07:11:26.399Z,11.75
2022-11-17T07:13:53.354Z,12.23
2022-11-17T07:16:23.877Z,11.73
2022-11-17T07:18:52.559Z,12.25
2022-11-17T07:21:19.501Z,11.77
2022-11-17T07:23:46.896Z,10.88
2022-11-17T07:26:14.524Z,11.25
2022-11-17T07:28:41.587Z,11.20
2022-11-17T07:31:09.476Z,11.07
2022-11-17T07:33:37.100Z,11.20
2022-11-17T07:36:09.897Z,12.75
2022-11-17T07:38:38.748Z,12.18
2022-11-17T07:41:07.276Z,12.15
2022-11-17T07:43:35.271Z,11.60
2022-11-17T07:46:07.243Z,12.90
2022-11-17T07:48:34.678Z,12.80
2022-11-17T07:51:03.493Z,10.30
2022-11-17T07:53:31.852Z,11.15
2022-11-17T07:56:03.826Z,11.15
2022-11-17T07:58:31.074Z,10.70
2022-11-17T08:00:58.079Z,10.85
2022-11-17T08:03:25.077Z,10.85
2022-11-17T08:05:53.585Z,11.23
2022-11-17T08:08:20.494Z,10.73
2022-11-17T08:10:47.446Z,10.77
2022-11-17T08:13:15.691Z,11.38
2022-11-17T08:15:42.593Z,11.02
2022-11-17T08:18:09.499Z,10.73
2022-11-17T08:20:37.463Z,10.45
2022-11-17T08:23:04.409Z,10.48
2022-11-17T08:25:31.342Z,10.38
2022-11-17T08:27:58.634Z,10.45
2022-11-17T08:30:44.582Z,10.45
2022-11-17T08:33:11.521Z,9.57
2022-11-17T08:35:38.460Z,10.10
2022-11-17T08:38:05.513Z,9.63
2022-11-17T08:40:43.730Z,9.52
2022-11-17T08:43:11.118Z,9.25
2022-11-17T08:45:38.263Z,9.55
2022-11-17T08:48:07.626Z,9.15
2022-11-17T08:57:17.577Z,9.32
2022-11-17T08:59:47.677Z,8.98
2022-11-17T09:02:14.851Z,8.75
2022-11-17T09:04:41.873Z,8.98
2022-11-17T09:07:08.991Z,8.60
2022-11-17T09:09:37.026Z,8.88
2022-11-17T09:12:04.115Z,8.70
2022-11-17T09:14:31.775Z,8.38
2022-11-17T09:16:58.717Z,8.00
2022-11-17T09:19:44.256Z,8.98
2022-11-17T09:22:11.227Z,8.90
2022-11-17T09:24:38.473Z,9.68
2022-11-17T09:27:05.481Z,8.93
2022-11-17T09:29:32.424Z,8.93
2022-11-17T09:31:59.278Z,9.38
2022-11-17T09:34:26.284Z,9.15
2022-11-17T09:36:53.285Z,9.20
2022-11-17T09:39:22.432Z,9.13
2022-11-17T09:41:51.487Z,9.05
2022-11-17T09:44:42.234Z,9.07
2022-11-17T09:47:33.019Z,9.07
2022-11-17T09:50:13.912Z,8.63
2022-11-17T09:53:09.833Z,8.45
2022-11-17T10:01:04.406Z,8.32
2022-11-17T10:03:33.122Z,8.45
2022-11-17T10:06:02.075Z,8.93
2022-11-17T10:08:35.090Z,9.30
2022-11-17T10:11:21.907Z,7.95
2022-11-17T10:13:49.884Z,8.88
2022-11-17T10:16:16.783Z,8.45
2022-11-17T10:18:43.727Z,8.93
2022-11-17T10:21:10.735Z,9.13
2022-11-17T10:23:46.192Z,8.77
2022-11-17T10:26:15.219Z,7.68
2022-11-17T10:28:42.251Z,7.12
2022-11-17T10:31:15.342Z,7.85
2022-11-17T10:33:44.543Z,7.40
2022-11-17T10:36:21.801Z,6.97
2022-11-17T10:38:54.349Z,6.78
2022-11-17T10:41:25.557Z,6.75
2022-11-17T10:44:06.856Z,7.28
2022-11-17T10:46:45.033Z,7.50
2022-11-17T10:49:34.468Z,6.80
2022-11-17T10:52:11.968Z,7.12
2022-11-17T10:54:38.967Z,6.72
2022-11-17T10:57:25.681Z,7.47
2022-11-17T10:59:56.912Z,7.35
2022-11-17T11:02:37.897Z,7.05
2022-11-17T11:05:08.265Z,6.70
2022-11-17T11:07:35.613Z,7.03
2022-11-17T11:10:08.685Z,7.10
2022-11-17T11:12:54.232Z,7.55
2022-11-17T11:15:25.674Z,7.55
2022-11-17T11:17:52.559Z,7.05
2022-11-17T11:20:22.800Z,4.85
2022-11-17T11:22:52.956Z,4.75
2022-11-17T11:25:37.013Z,5.30
2022-11-17T11:28:12.054Z,5.07
2022-11-17T11:30:47.729Z,4.57
2022-11-17T11:33:17.497Z,4.70
2022-11-17T11:36:15.277Z,5.10
2022-11-17T11:38:53.014Z,4.65
2022-11-17T11:41:42.872Z,5.30
2022-11-17T11:44:33.847Z,5.03
2022-11-17T11:47:36.199Z,5.12
2022-11-17T11:50:13.163Z,4.93
2022-11-17T11:52:44.984Z,5.60
2022-11-17T11:55:31.279Z,5.10
2022-11-17T11:58:01.074Z,5.70
2022-11-17T12:00:27.980Z,5.45
2022-11-17T12:03:20.816Z,5.68
2022-11-17T12:05:59.952Z,5.55
2022-11-17T12:08:36.519Z,6.18
2022-11-17T12:11:27.510Z,6.22
2022-11-17T12:13:54.793Z,6.07
2022-11-17T12:16:47.984Z,5.95
2022-11-17T12:19:57.289Z,5.72
2022-11-17T12:22:30.092Z,6.75
2022-11-17T12:25:17.241Z,6.15
2022-11-17T12:27:49.942Z,5.90
2022-11-17T12:30:57.390Z,5.80
2022-11-17T12:33:24.777Z,5.62
2022-11-17T12:36:37.532Z,5.97
2022-11-17T12:39:08.803Z,5.45
2022-11-17T12:42:00.153Z,5.78
2022-11-17T12:44:39.553Z,6.18
2022-11-17T12:47:22.345Z,5.85
2022-11-17T12:50:07.506Z,5.97
2022-11-17T12:52:43.779Z,5.82
2022-11-17T12:55:22.827Z,5.73
2022-11-17T12:57:58.521Z,6.43
2022-11-17T13:00:28.139Z,6.57
2022-11-17T13:03:05.355Z,5.28
2022-11-17T13:08:25.454Z,5.35
2022-11-17T13:11:03.914Z,5.57
2022-11-17T13:13:30.837Z,5.50
2022-11-17T13:16:00.177Z,5.03
2022-11-17T13:18:33.111Z,5.62
2022-11-17T13:21:01.208Z,5.82
2022-11-17T13:23:30.403Z,5.40
2022-11-17T13:26:10.596Z,5.00
2022-11-17T13:28:37.975Z,4.93
2022-11-17T13:31:04.933Z,4.82
2022-11-17T13:33:38.432Z,4.87
2022-11-17T13:36:15.267Z,4.57
2022-11-17T13:38:54.885Z,4.22
2022-11-17T13:41:22.781Z,4.65
2022-11-17T13:43:50.690Z,4.25
2022-11-17T13:46:18.353Z,4.60
2022-11-17T13:48:49.718Z,4.50
2022-11-17T13:51:22.954Z,5.20
2022-11-17T13:53:59.698Z,4.97
2022-11-17T13:56:31.341Z,5.65
2022-11-17T13:59:01.231Z,5.35
2022-11-17T14:01:29.670Z,5.03
2022-11-17T14:04:20.208Z,4.90
2022-11-17T14:07:01.885Z,5.47
2022-11-17T14:09:31.121Z,4.78
2022-11-17T14:11:58.727Z,5.50
2022-11-17T14:14:33.503Z,5.18
2022-11-17T14:17:18.278Z,5.20
2022-11-17T14:23:13.838Z,5.50
2022-11-17T14:25:43.269Z,4.70
2022-11-17T14:28:21.595Z,4.95
2022-11-17T14:30:55.973Z,5.07
2022-11-17T14:33:23.712Z,5.62
2022-11-17T14:35:53.881Z,5.62
2022-11-17T14:38:21.245Z,5.60
2022-11-17T14:40:52.659Z,5.45
2022-11-17T14:43:21.081Z,5.93
2022-11-17T14:45:48.936Z,5.45
2022-11-17T14:48:19.432Z,6.05
2022-11-17T14:50:47.214Z,6.25
2022-11-17T14:53:14.215Z,6.00
2022-11-17T14:55:41.124Z,5.95
2022-11-17T14:58:10.034Z,6.03
2022-11-17T15:00:37.157Z,5.97
2022-11-17T15:03:04.170Z,6.03
2022-11-17T15:05:31.168Z,5.70
2022-11-17T15:07:58.089Z,5.70
2022-11-17T15:10:25.026Z,6.07
2022-11-17T15:12:51.975Z,6.97
2022-11-17T15:15:19.000Z,6.35
2022-11-17T15:17:45.921Z,6.47
2022-11-17T15:20:12.886Z,6.65
2022-11-17T15:22:39.794Z,6.45
2022-11-17T15:25:08.135Z,6.40
2022-11-17T15:27:35.009Z,6.30
2022-11-17T15:30:02.241Z,6.53
2022-11-17T15:32:29.185Z,5.97
2022-11-17T15:34:56.103Z,6.32
2022-11-17T15:37:23.018Z,6.53
2022-11-17T15:39:49.929Z,6.90
2022-11-17T15:42:16.856Z,6.93
2022-11-17T15:44:43.820Z,7.10
2022-11-17T15:47:10.771Z,7.18
2022-11-17T15:49:37.643Z,8.10
2022-11-17T15:52:04.672Z,7.43
2022-11-17T15:54:31.572Z,7.12
2022-11-17T15:57:00.715Z,7.45
2022-11-17T15:59:27.588Z,7.78
2022-11-17T16:01:54.508Z,7.43
2022-11-17T16:04:21.813Z,7.72
2022-11-17T16:06:49.011Z,7.68
2022-11-17T16:09:16.704Z,8.85
2022-11-17T16:11:43.984Z,8.77
2022-11-17T16:14:11.883Z,8.55
2022-11-17T16:16:39.352Z,7.93
2022-11-17T16:19:06.693Z,7.78
2022-11-17T16:21:33.959Z,7.97
2022-11-17T16:24:02.441Z,7.70
2022-11-17T16:26:30.188Z,8.05
2022-11-17T16:28:58.776Z,8.50
2022-11-17T16:31:30.878Z,7.80
2022-11-17T16:34:00.108Z,8.07
2022-11-17T16:36:36.316Z,7.45
2022-11-17T16:39:05.678Z,7.72
2022-11-17T16:41:37.378Z,8.30
2022-11-17T16:44:08.793Z,7.82
2022-11-17T16:46:36.215Z,7.40
2022-11-17T16:49:05.979Z,8.13
2022-11-17T16:51:33.328Z,9.13
2022-11-17T16:54:03.060Z,11.05
2022-11-17T16:56:30.286Z,8.50
2022-11-17T16:58:57.598Z,7.78
2022-11-17T17:01:30.606Z,8.60
2022-11-17T17:04:01.681Z,7.70
2022-11-17T17:06:29.612Z,9.43
2022-11-17T17:08:58.054Z,9.43
2022-11-17T17:11:25.190Z,10.07
2022-11-17T17:13:52.248Z,13.40
2022-11-17T17:16:20.072Z,12.32
2022-11-17T17:18:47.007Z,9.50
2022-11-17T17:21:17.387Z,8.95
2022-11-17T17:23:45.816Z,8.40
2022-11-17T17:26:16.850Z,9.32
2022-11-17T17:28:44.915Z,8.75
2022-11-17T17:31:21.073Z,8.07
2022-11-17T17:33:50.407Z,8.40
2022-11-17T17:36:22.433Z,8.70
2022-11-17T17:38:55.346Z,8.05
2022-11-17T17:41:26.247Z,8.95
2022-11-17T17:44:03.774Z,9.13
2022-11-17T17:46:32.114Z,9.77
2022-11-17T17:48:59.165Z,10.02
2022-11-17T17:51:27.865Z,9.88
2022-11-17T17:53:56.130Z,8.88
2022-11-17T17:56:23.713Z,9.15
2022-11-17T17:58:51.994Z,9.32
2022-11-17T18:01:23.185Z,9.23
2022-11-17T18:03:51.791Z,8.55
2022-11-17T18:06:21.151Z,9.13
2022-11-17T18:08:50.535Z,9.30
2022-11-17T18:11:20.688Z,9.70
2022-11-17T18:13:49.328Z,9.35
2022-11-17T18:16:22.121Z,8.95
2022-11-17T18:18:49.426Z,9.07
2022-11-17T18:21:20.198Z,8.93
2022-11-17T18:23:47.164Z,9.20
2022-11-17T18:26:20.360Z,9.30
2022-11-17T18:29:07.756Z,9.25
2022-11-17T18:31:36.505Z,8.98
2022-11-17T18:34:09.243Z,9.82
2022-11-17T18:36:36.265Z,9.00
2022-11-17T18:39:03.770Z,9.15
2022-11-17T18:41:32.369Z,10.43
2022-11-17T18:43:59.295Z,9.52
2022-11-17T18:46:28.891Z,9.68
2022-11-17T18:48:56.886Z,9.63
2022-11-17T18:51:29.268Z,9.88
2022-11-17T18:53:57.902Z,9.60
2022-11-17T18:56:32.051Z,9.25
2022-11-17T18:58:59.506Z,9.98
2022-11-17T19:01:30.486Z,9.25
2022-11-17T19:04:00.905Z,9.60
2022-11-17T19:06:28.749Z,8.88
2022-11-17T19:08:57.595Z,10.05
2022-11-17T19:11:24.571Z,9.75
2022-11-17T19:13:52.428Z,9.50
2022-11-17T19:16:22.168Z,10.05
2022-11-17T19:18:52.553Z,9.77
2022-11-17T19:21:26.651Z,9.98
2022-11-17T19:23:55.116Z,10.52
2022-11-17T19:26:26.790Z,11.20
2022-11-17T19:28:58.248Z,10.60
2022-11-17T19:31:25.812Z,11.05
2022-11-17T19:33:53.537Z,10.23
2022-11-17T19:36:22.714Z,11.73
2022-11-17T19:38:51.171Z,11.02
2022-11-17T19:41:25.588Z,12.25
2022-11-17T19:43:56.876Z,11.25
2022-11-17T19:46:25.271Z,10.85
2022-11-17T19:48:52.525Z,11.95
2022-11-17T19:51:27.260Z,11.32
2022-11-17T19:53:56.195Z,10.73
2022-11-17T19:56:24.378Z,11.88
2022-11-17T19:58:52.181Z,10.85
2022-11-17T20:01:21.307Z,10.95
2022-11-17T20:03:48.740Z,11.63
2022-11-17T20:06:18.099Z,10.88
2022-11-17T20:08:45.338Z,10.93
2022-11-17T20:11:14.861Z,11.18
2022-11-17T20:13:41.861Z,10.48
2022-11-17T20:16:15.253Z,10.88
2022-11-17T20:18:43.526Z,9.73
2022-11-17T20:21:11.317Z,9.98
2022-11-17T20:23:39.463Z,11.27
2022-11-17T20:26:08.798Z,9.88
2022-11-17T20:28:36.643Z,11.18
2022-11-17T20:31:17.285Z,10.23
2022-11-17T20:33:44.271Z,10.38
2022-11-17T20:36:19.593Z,10.75
2022-11-17T20:39:07.053Z,11.32
2022-11-17T20:41:34.594Z,11.85
2022-11-17T20:44:03.329Z,11.32
2022-11-17T20:46:30.422Z,9.90
2022-11-17T20:48:57.327Z,10.40
2022-11-17T20:51:25.398Z,10.35
2022-11-17T20:53:52.663Z,11.05
2022-11-17T20:56:20.243Z,11.07
2022-11-17T20:58:47.246Z,12.02
2022-11-17T21:01:16.560Z,11.02
2022-11-17T21:03:44.203Z,10.32
2022-11-17T21:06:11.579Z,9.98
2022-11-17T21:08:40.027Z,10.13
2022-11-17T21:11:09.763Z,11.40
2022-11-17T21:13:37.683Z,10.45
2022-11-17T21:16:12.582Z,11.38
2022-11-17T21:18:45.226Z,10.45
2022-11-17T21:21:12.629Z,10.85
2022-11-17T21:23:40.552Z,12.27
2022-11-17T21:26:13.103Z,11.00
2022-11-17T21:28:41.121Z,10.40
2022-11-17T21:31:12.059Z,10.60
2022-11-17T21:33:39.602Z,11.27
2022-11-17T21:36:15.924Z,10.88
2022-11-17T21:38:43.809Z,11.43
2022-11-17T21:41:32.610Z,10.48
2022-11-17T21:44:01.107Z,10.90
2022-11-17T21:46:30.121Z,10.25
2022-11-17T21:48:58.194Z,10.23
2022-11-17T21:51:28.203Z,11.25
2022-11-17T21:53:57.664Z,11.98
2022-11-17T21:56:27.056Z,10.27
2022-11-17T21:59:01.104Z,11.30
2022-11-17T22:01:29.105Z,11.35
2022-11-17T22:03:56.244Z,11.27
2022-11-17T22:06:24.092Z,11.85
2022-11-17T22:08:51.370Z,10.00
2022-11-17T22:11:35.600Z,11.15
2022-11-17T22:14:11.967Z,10.55
2022-11-17T22:16:43.653Z,11.32
2022-11-17T22:19:11.468Z,11.40
2022-11-17T22:21:38.992Z,12.68
2022-11-17T22:24:07.977Z,12.48
2022-11-17T22:26:38.636Z,12.73
2022-11-17T22:29:08.700Z,13.23
2022-11-17T22:31:35.594Z,13.80
2022-11-17T22:34:02.888Z,13.75
2022-11-17T22:36:29.821Z,14.60
2022-11-17T22:38:56.730Z,16.02
2022-11-17T22:41:23.931Z,14.50
2022-11-17T22:43:52.066Z,15.98
2022-11-17T22:46:19.983Z,15.95
2022-11-17T22:48:47.463Z,15.07
2022-11-17T22:51:34.750Z,15.40
2022-11-17T22:54:01.693Z,14.52
2022-11-17T22:56:28.570Z,14.15
2022-11-17T22:58:59.487Z,15.18
2022-11-17T23:01:26.508Z,13.90
2022-11-17T23:03:53.522Z,13.60
2022-11-17T23:06:20.556Z,14.50
2022-11-17T23:08:47.486Z,17.55
2022-11-17T23:11:36.105Z,17.45
2022-11-17T23:14:01.653Z,17.27
2022-11-17T23:16:28.589Z,19.27
2022-11-17T23:18:56.551Z,20.50
2022-11-17T23:21:23.781Z,22.02
2022-11-17T23:23:51.142Z,20.75
2022-11-17T23:26:18.286Z,23.58
2022-11-17T23:28:45.512Z,18.40
2022-11-17T23:31:16.325Z,17.77
2022-11-17T23:33:45.378Z,19.15
2022-11-17T23:36:17.127Z,18.25
2022-11-17T23:38:44.474Z,15.70
2022-11-17T23:41:13.446Z,15.27
2022-11-17T23:43:40.894Z,14.52
2022-11-17T23:46:11.644Z,14.18
2022-11-17T23:48:38.595Z,15.55
2022-11-17T23:51:07.605Z,15.15
2022-11-17T23:53:34.978Z,15.35
2022-11-17T23:56:02.386Z,14.68
2022-11-17T23:58:29.608Z,14.50
